createdAt,value
2019-03-13T00:02:14.552Z,27.2
2019-03-13T00:05:20.430Z,27.2
2019-03-13T00:08:26.562Z,27.2
2019-03-13T00:11:32.524Z,27.2
2019-03-13T00:14:38.477Z,27.2
2019-03-13T00:17:44.661Z,27.2
2019-03-13T00:20:50.604Z,27.3
2019-03-13T00:23:56.564Z,27.3
2019-03-13T00:27:02.525Z,27.3
2019-03-13T00:30:08.483Z,27.3
2019-03-13T00:33:14.458Z,27.3
2019-03-13T00:36:20.450Z,27.3
2019-03-13T00:39:26.476Z,27.4
2019-03-13T00:42:32.528Z,27.3
2019-03-13T00:45:38.692Z,27.3
2019-03-13T00:48:44.564Z,27.3
2019-03-13T00:51:50.510Z,27.3
2019-03-13T00:54:56.382Z,27.3
2019-03-13T00:58:05.302Z,27.3
2019-03-13T01:01:11.298Z,27.4
2019-03-13T01:04:17.332Z,27.4
2019-03-13T01:07:23.199Z,27.2
2019-03-13T01:10:29.240Z,27
2019-03-13T01:13:35.199Z,27
2019-03-13T01:16:41.158Z,27
2019-03-13T01:19:47.117Z,27
2019-03-13T01:22:53.180Z,27.1
2019-03-13T01:25:59.097Z,27.1
2019-03-13T01:29:05.096Z,27.1
2019-03-13T01:32:11.078Z,27.1
2019-03-13T01:35:17.116Z,27.1
2019-03-13T01:38:23.075Z,27.2
2019-03-13T01:41:29.032Z,27.1
2019-03-13T01:44:34.994Z,27.2
2019-03-13T01:47:44.228Z,27.2
2019-03-13T01:50:50.187Z,27.1
2019-03-13T01:53:56.146Z,27
2019-03-13T01:57:02.086Z,27
2019-03-13T02:00:08.067Z,27.1
2019-03-13T02:03:14.128Z,27
2019-03-13T02:06:20.087Z,27
2019-03-13T02:09:26.050Z,27
2019-03-13T02:12:32.053Z,26.9
2019-03-13T02:15:37.966Z,26.8
2019-03-13T02:18:43.929Z,26.7
2019-03-13T02:21:49.815Z,26.6
2019-03-13T02:24:55.869Z,26.5
2019-03-13T02:28:01.727Z,26.5
2019-03-13T02:31:07.613Z,26.4
2019-03-13T02:34:13.729Z,26.4
2019-03-13T02:37:19.784Z,26.3
2019-03-13T02:40:25.843Z,26.3
2019-03-13T02:43:31.903Z,26.3
2019-03-13T02:46:37.971Z,26.2
2019-03-13T02:49:43.927Z,26.1
2019-03-13T02:52:49.862Z,26.2
2019-03-13T02:55:56.058Z,26.1
2019-03-13T02:59:02.008Z,26.1
2019-03-13T03:02:08.237Z,26
2019-03-13T03:05:14.339Z,26
2019-03-13T03:08:20.431Z,26
2019-03-13T03:11:26.775Z,25.9
2019-03-13T03:14:32.755Z,25.9
2019-03-13T03:17:38.899Z,25.9
2019-03-13T03:20:44.986Z,25.9
2019-03-13T03:23:51.017Z,25.9
2019-03-13T03:26:56.974Z,25.9
2019-03-13T03:30:03.147Z,25.9
2019-03-13T03:33:09.377Z,25.8
2019-03-13T03:36:15.478Z,25.8
2019-03-13T03:39:21.356Z,25.8
2019-03-13T03:42:27.697Z,25.7
2019-03-13T03:45:33.656Z,25.7
2019-03-13T03:48:42.355Z,25.7
2019-03-13T03:51:48.476Z,25.6
2019-03-13T03:54:54.510Z,25.6
2019-03-13T03:58:00.569Z,25.6
2019-03-13T04:01:06.520Z,25.5
2019-03-13T04:04:12.585Z,25.5
2019-03-13T04:07:18.473Z,25.5
2019-03-13T04:10:24.607Z,25.4
2019-03-13T04:13:30.562Z,25.3
2019-03-13T04:16:36.627Z,25.1
2019-03-13T04:19:42.586Z,25.3
2019-03-13T04:22:48.645Z,25.1
2019-03-13T04:25:54.708Z,25
2019-03-13T04:29:00.607Z,24.9
2019-03-13T04:32:06.726Z,24.9
2019-03-13T04:35:12.748Z,24.8
2019-03-13T04:38:18.755Z,24.7
2019-03-13T04:41:24.809Z,24.6
2019-03-13T04:44:30.693Z,24.6
2019-03-13T04:47:36.729Z,24.5
2019-03-13T04:50:42.779Z,24.5
2019-03-13T04:53:48.802Z,24.5
2019-03-13T04:56:57.584Z,24.4
2019-03-13T05:00:03.542Z,24.4
2019-03-13T05:03:09.510Z,24.4
2019-03-13T05:06:15.442Z,24.3
2019-03-13T05:09:21.422Z,24.3
2019-03-13T05:12:27.410Z,24.6
2019-03-13T05:15:33.445Z,24.4
2019-03-13T05:18:39.387Z,26.8
2019-03-13T05:21:45.577Z,26.2
2019-03-13T05:24:51.641Z,25.3
2019-03-13T05:27:57.592Z,25.5
2019-03-13T05:31:03.651Z,25.3
2019-03-13T05:34:09.686Z,24.6
2019-03-13T05:37:18.387Z,25.2
2019-03-13T05:40:24.907Z,25.7
2019-03-13T05:43:30.871Z,26.1
2019-03-13T05:46:36.921Z,26
2019-03-13T05:49:42.880Z,25.1
2019-03-13T05:52:48.949Z,25
2019-03-13T05:55:54.943Z,25
2019-03-13T05:59:00.968Z,25
2019-03-13T06:02:06.922Z,24.7
2019-03-13T06:05:12.986Z,25.4
2019-03-13T06:08:19.361Z,25.3
2019-03-13T06:11:25.414Z,24.9
2019-03-13T06:14:31.378Z,26.5
2019-03-13T06:17:37.254Z,25.3
2019-03-13T06:20:43.298Z,25.9
2019-03-13T06:23:49.175Z,25.8
2019-03-13T06:26:55.111Z,25.5
2019-03-13T06:30:01.173Z,26.9
2019-03-13T06:33:07.146Z,26.5
2019-03-13T06:36:13.196Z,26
2019-03-13T06:39:19.162Z,26.7
2019-03-13T06:42:26.238Z,26.7
2019-03-13T06:45:32.203Z,25.9
2019-03-13T06:48:38.168Z,26.2
2019-03-13T06:51:45.070Z,26.2
2019-03-13T06:54:51.210Z,26.8
2019-03-13T06:57:57.166Z,26
2019-03-13T07:01:03.227Z,25.8
2019-03-13T07:04:09.150Z,25.3
2019-03-13T07:07:17.772Z,26.2
2019-03-13T07:10:23.771Z,25.7
2019-03-13T07:13:29.829Z,25.9
2019-03-13T07:16:35.892Z,25.8
2019-03-13T07:19:42.892Z,25.5
2019-03-13T07:22:48.934Z,25
2019-03-13T07:25:54.894Z,25.2
2019-03-13T07:29:12.964Z,24.9
2019-03-13T07:32:19.018Z,25.5
2019-03-13T07:35:24.979Z,24.9
2019-03-13T07:38:33.772Z,25.6
2019-03-13T07:41:42.510Z,25.7
2019-03-13T07:44:48.571Z,24.8
2019-03-13T07:47:54.533Z,25.3
2019-03-13T07:51:00.415Z,25.2
2019-03-13T07:54:13.538Z,24.7
2019-03-13T07:57:19.577Z,25.3
2019-03-13T08:00:25.647Z,24.5
2019-03-13T08:03:31.610Z,25.4
2019-03-13T08:06:38.590Z,25.5
2019-03-13T08:09:44.647Z,26.2
2019-03-13T08:12:50.711Z,25.3
2019-03-13T08:15:56.773Z,25
2019-03-13T08:19:02.734Z,25
2019-03-13T08:22:08.907Z,26.6
2019-03-13T08:25:15.159Z,25.7
2019-03-13T08:28:21.223Z,24.8
2019-03-13T08:31:27.396Z,24.7
2019-03-13T08:34:35.423Z,25.8
2019-03-13T08:37:42.712Z,24.6
2019-03-13T08:40:48.864Z,24.2
2019-03-13T08:43:54.916Z,23.9
2019-03-13T08:47:00.882Z,23.8
2019-03-13T08:50:06.866Z,23.6
2019-03-13T08:53:12.917Z,23.4
2019-03-13T08:56:19.368Z,23.4
2019-03-13T08:59:25.443Z,23.8
2019-03-13T09:02:31.699Z,23.6
2019-03-13T09:05:37.761Z,23.1
2019-03-13T09:08:43.902Z,22.9
2019-03-13T09:11:49.985Z,22.9
2019-03-13T09:14:56.218Z,22.6
2019-03-13T09:18:02.217Z,23
2019-03-13T09:21:08.261Z,22.9
2019-03-13T09:24:14.438Z,22.4
2019-03-13T09:27:20.397Z,22.2
2019-03-13T09:30:26.282Z,22.5
2019-03-13T09:33:32.313Z,22.2
2019-03-13T09:36:38.352Z,22.2
2019-03-13T09:39:44.346Z,22.5
2019-03-13T09:42:50.227Z,22.4
2019-03-13T09:45:56.365Z,22.4
2019-03-13T09:49:02.324Z,22.3
2019-03-13T09:52:08.209Z,22
2019-03-13T09:55:14.258Z,22.2
2019-03-13T09:58:20.211Z,22.2
2019-03-13T10:01:26.456Z,21.8
2019-03-13T10:04:32.467Z,22
2019-03-13T10:07:38.491Z,22.1
2019-03-13T10:10:44.526Z,22.3
2019-03-13T10:13:50.384Z,22.3
2019-03-13T10:17:11.367Z,22.3
2019-03-13T10:20:17.346Z,22.9
2019-03-13T10:23:24.351Z,22.8
2019-03-13T10:26:30.745Z,22.2
2019-03-13T10:29:38.444Z,22
2019-03-13T10:32:46.113Z,22.1
2019-03-13T10:35:53.426Z,22.3
2019-03-13T10:38:59.381Z,21.9
2019-03-13T10:42:05.269Z,21.5
2019-03-13T10:45:11.296Z,21.5
2019-03-13T10:48:17.257Z,21.5
2019-03-13T10:51:23.417Z,21.4
2019-03-13T10:54:29.497Z,21.6
2019-03-13T10:57:38.613Z,21.4
2019-03-13T11:00:44.697Z,21.4
2019-03-13T11:03:50.844Z,21.5
2019-03-13T11:06:56.903Z,21.2
2019-03-13T11:10:02.779Z,21.4
2019-03-13T11:13:08.731Z,21.1
2019-03-13T11:16:14.795Z,21.2
2019-03-13T11:19:20.966Z,21.2
2019-03-13T11:22:27.124Z,21.2
2019-03-13T11:25:34.320Z,21.1
2019-03-13T11:28:40.237Z,21
2019-03-13T11:31:46.275Z,21.1
2019-03-13T11:34:52.279Z,21.3
2019-03-13T11:37:58.545Z,21
2019-03-13T11:41:05.438Z,21
2019-03-13T11:44:11.702Z,21.2
2019-03-13T11:47:17.598Z,21.5
2019-03-13T11:50:23.632Z,21.4
2019-03-13T11:53:29.800Z,21.5
2019-03-13T11:56:36.150Z,21
2019-03-13T11:59:44.971Z,22.9
2019-03-13T12:02:51.049Z,20.5
2019-03-13T12:05:57.113Z,20.9
2019-03-13T12:09:03.374Z,21
2019-03-13T12:12:09.426Z,20.7
2019-03-13T12:15:16.408Z,20.9
2019-03-13T12:18:22.525Z,20.5
2019-03-13T12:21:29.668Z,21
2019-03-13T12:24:35.567Z,20.9
2019-03-13T12:27:44.139Z,21.2
2019-03-13T12:30:50.273Z,20.8
2019-03-13T12:33:56.266Z,21.1
2019-03-13T12:37:02.323Z,20.9
2019-03-13T12:40:08.513Z,20.8
2019-03-13T12:43:15.065Z,20.8
2019-03-13T12:46:21.136Z,21
2019-03-13T12:49:27.191Z,20.5
2019-03-13T12:52:33.174Z,21
2019-03-13T12:55:39.158Z,20.7
2019-03-13T12:58:45.154Z,20.9
2019-03-13T13:01:51.376Z,21
2019-03-13T13:04:57.296Z,21
2019-03-13T13:08:04.912Z,21.2
2019-03-13T13:11:11.050Z,21
2019-03-13T13:14:16.986Z,20.9
2019-03-13T13:17:24.109Z,21.3
2019-03-13T13:20:30.044Z,21.3
2019-03-13T13:23:36.121Z,21.1
2019-03-13T13:26:42.087Z,21.1
2019-03-13T13:29:51.419Z,21.2
2019-03-13T13:32:57.356Z,21.2
2019-03-13T13:36:03.435Z,22
2019-03-13T13:39:09.501Z,21.5
2019-03-13T13:42:15.663Z,21.6
2019-03-13T13:45:21.776Z,21.7
2019-03-13T13:48:27.794Z,21.5
2019-03-13T13:51:33.854Z,21.4
2019-03-13T13:54:39.727Z,21.5
2019-03-13T13:57:45.765Z,21.4
2019-03-13T14:00:51.828Z,21.6
2019-03-13T14:03:57.995Z,21.3
2019-03-13T14:07:03.870Z,21.1
2019-03-13T14:10:09.913Z,21.6
2019-03-13T14:13:15.975Z,21.5
2019-03-13T14:16:22.036Z,21.7
2019-03-13T14:19:28.141Z,21.6
2019-03-13T14:22:34.033Z,21.5
2019-03-13T14:25:40.223Z,21.9
2019-03-13T14:28:47.095Z,21.7
2019-03-13T14:31:53.173Z,21.6
2019-03-13T14:35:00.390Z,21.6
2019-03-13T14:38:06.523Z,21.5
2019-03-13T14:41:12.584Z,21.5
2019-03-13T14:44:18.497Z,21.6
2019-03-13T14:47:24.504Z,21.6
2019-03-13T14:50:30.397Z,21.6
2019-03-13T14:53:39.590Z,21.6
2019-03-13T14:56:45.555Z,21.8
2019-03-13T14:59:51.428Z,21.8
2019-03-13T15:02:57.474Z,21.7
2019-03-13T15:06:03.431Z,21.6
2019-03-13T15:09:09.494Z,21.7
2019-03-13T15:12:15.555Z,21.6
2019-03-13T15:15:21.442Z,21.5
2019-03-13T15:18:27.472Z,21.4
2019-03-13T15:21:33.348Z,21.5
2019-03-13T15:24:39.294Z,21.6
2019-03-13T15:27:45.174Z,21.6
2019-03-13T15:30:51.168Z,21.6
2019-03-13T15:33:57.183Z,21.7
2019-03-13T15:37:03.144Z,21.9
2019-03-13T15:40:09.298Z,22.1
2019-03-13T15:43:15.262Z,21.8
2019-03-13T15:46:21.314Z,21.8
2019-03-13T15:49:27.481Z,21.8
2019-03-13T15:52:33.437Z,21.7
2019-03-13T15:55:40.436Z,21.7
2019-03-13T15:58:46.299Z,21.6
2019-03-13T16:01:52.366Z,21.3
2019-03-13T16:04:58.331Z,21.5
2019-03-13T16:08:04.365Z,21.5
2019-03-13T16:11:10.252Z,21.2
2019-03-13T16:14:16.186Z,21.5
2019-03-13T16:17:22.139Z,21.4
2019-03-13T16:20:28.015Z,21.2
2019-03-13T16:23:34.058Z,21.5
2019-03-13T16:26:39.965Z,21.4
2019-03-13T16:29:45.975Z,21.3
2019-03-13T16:32:52.045Z,21.3
2019-03-13T16:35:58.018Z,21.2
2019-03-13T16:39:04.059Z,21.2
2019-03-13T16:42:09.941Z,21.2
2019-03-13T16:45:15.990Z,21.1
2019-03-13T16:48:22.142Z,21.2
2019-03-13T16:51:28.074Z,21.2
2019-03-13T16:54:34.067Z,21.3
2019-03-13T16:57:40.046Z,21.3
2019-03-13T17:00:46.083Z,21.2
2019-03-13T17:03:55.203Z,21.2
2019-03-13T17:07:01.388Z,21.2
2019-03-13T17:10:07.261Z,21.2
2019-03-13T17:13:13.304Z,21.2
2019-03-13T17:16:19.261Z,21.1
2019-03-13T17:19:25.225Z,21.1
2019-03-13T17:22:31.287Z,21.1
2019-03-13T17:25:37.248Z,21.1
2019-03-13T17:28:43.285Z,21.1
2019-03-13T17:31:52.749Z,21.1
2019-03-13T17:34:58.690Z,21
2019-03-13T17:38:04.774Z,21.1
2019-03-13T17:41:10.726Z,21.2
2019-03-13T17:44:16.690Z,21.1
2019-03-13T17:47:22.557Z,21.2
2019-03-13T17:50:28.577Z,21.3
2019-03-13T17:53:34.533Z,21.4
2019-03-13T17:56:40.833Z,21.4
2019-03-13T17:59:46.810Z,21.4
2019-03-13T18:02:52.857Z,21.4
2019-03-13T18:05:58.812Z,21.5
2019-03-13T18:09:04.976Z,21.5
2019-03-13T18:12:10.944Z,21.3
2019-03-13T18:15:16.811Z,21.2
2019-03-13T18:18:22.850Z,21.4
2019-03-13T18:21:28.814Z,21.6
2019-03-13T18:24:34.772Z,21.5
2019-03-13T18:27:40.739Z,21.5
2019-03-13T18:30:46.797Z,21.5
2019-03-13T18:33:52.690Z,21.5
2019-03-13T18:36:58.714Z,21.4
2019-03-13T18:40:04.781Z,21.5
2019-03-13T18:43:12.901Z,21.4
2019-03-13T18:46:21.917Z,21.4
2019-03-13T18:49:27.788Z,21.4
2019-03-13T18:52:33.731Z,21.3
2019-03-13T18:55:39.606Z,21.4
2019-03-13T18:58:45.553Z,21.4
2019-03-13T19:01:51.511Z,21.4
2019-03-13T19:04:58.491Z,21.4
2019-03-13T19:08:04.561Z,21.4
2019-03-13T19:11:10.431Z,21.4
2019-03-13T19:14:16.370Z,21.4
2019-03-13T19:17:22.439Z,21.5
2019-03-13T19:20:28.310Z,21.4
2019-03-13T19:23:34.556Z,21.4
2019-03-13T19:26:40.624Z,21.5
2019-03-13T19:29:46.556Z,21.5
2019-03-13T19:32:52.548Z,21.5
2019-03-13T19:35:58.412Z,21.5
2019-03-13T19:39:04.361Z,21.5
2019-03-13T19:42:10.327Z,21.5
2019-03-13T19:45:19.349Z,21.5
2019-03-13T19:48:25.319Z,21.6
2019-03-13T19:51:31.376Z,21.7
2019-03-13T19:54:37.440Z,21.6
2019-03-13T19:57:43.605Z,21.6
2019-03-13T20:00:49.505Z,21.7
2019-03-13T20:03:56.333Z,21.6
2019-03-13T20:07:02.339Z,21.7
2019-03-13T20:10:08.460Z,21.7
2019-03-13T20:13:14.624Z,21.6
2019-03-13T20:16:20.588Z,21.8
2019-03-13T20:19:26.463Z,21.8
2019-03-13T20:22:32.406Z,21.8
2019-03-13T20:25:38.467Z,21.8
2019-03-13T20:28:46.981Z,21.8
2019-03-13T20:31:52.939Z,21.9
2019-03-13T20:34:58.900Z,21.8
2019-03-13T20:38:05.063Z,21.8
2019-03-13T20:41:11.032Z,21.9
2019-03-13T20:44:16.900Z,21.9
2019-03-13T20:47:22.851Z,21.9
2019-03-13T20:50:38.240Z,21.8
2019-03-13T20:53:44.287Z,21.9
2019-03-13T20:56:50.266Z,21.9
2019-03-13T20:59:56.220Z,22
2019-03-13T21:03:02.266Z,22
2019-03-13T21:06:08.326Z,21.9
2019-03-13T21:09:14.204Z,22
2019-03-13T21:12:23.525Z,22
2019-03-13T21:15:29.585Z,22
2019-03-13T21:18:38.417Z,22
2019-03-13T21:21:44.373Z,22
2019-03-13T21:24:50.537Z,22.1
2019-03-13T21:27:56.503Z,22.2
2019-03-13T21:31:04.717Z,22.3
2019-03-13T21:34:10.667Z,22.5
2019-03-13T21:37:16.631Z,22.6
2019-03-13T21:40:22.690Z,22.8
2019-03-13T21:43:28.752Z,22.8
2019-03-13T21:46:34.716Z,22.8
2019-03-13T21:49:40.672Z,22.9
2019-03-13T21:52:46.743Z,22.9
2019-03-13T21:55:52.698Z,23
2019-03-13T21:58:58.732Z,23.1
2019-03-13T22:02:07.563Z,23.1
2019-03-13T22:05:27.324Z,23.2
2019-03-13T22:08:33.406Z,23.2
2019-03-13T22:11:39.398Z,23.3
2019-03-13T22:14:45.467Z,23.3
2019-03-13T22:17:51.397Z,23.3
2019-03-13T22:20:57.449Z,23.4
2019-03-13T22:24:03.340Z,23.4
2019-03-13T22:27:09.295Z,23.5
2019-03-13T22:30:18.633Z,23.5
2019-03-13T22:33:24.610Z,23.5
2019-03-13T22:36:30.556Z,23.6
2019-03-13T22:39:36.563Z,23.6
2019-03-13T22:42:42.382Z,23.6
2019-03-13T22:45:48.511Z,23.7
2019-03-13T22:48:59.097Z,23.6
2019-03-13T22:52:05.191Z,23.7
2019-03-13T22:55:11.157Z,23.7
2019-03-13T22:58:17.180Z,23.8
2019-03-13T23:01:26.619Z,23.8
2019-03-13T23:04:35.484Z,23.8
2019-03-13T23:07:42.129Z,23.9
2019-03-13T23:10:48.091Z,23.9
2019-03-13T23:13:53.962Z,23.9
2019-03-13T23:16:59.901Z,24
2019-03-13T23:20:05.887Z,24
2019-03-13T23:23:12.130Z,24
2019-03-13T23:26:18.093Z,24
2019-03-13T23:29:23.970Z,24.1
2019-03-13T23:32:29.833Z,24.1
2019-03-13T23:35:35.880Z,24.1
2019-03-13T23:38:41.924Z,24.1
2019-03-13T23:41:47.798Z,24.2
2019-03-13T23:44:55.483Z,24.2
2019-03-13T23:48:01.518Z,24.2
2019-03-13T23:51:07.819Z,24.3
2019-03-13T23:54:13.780Z,24.3
2019-03-13T23:57:20.139Z,24.3
